Flight Track Log - Related Links

Times and Time Zones

All times are in EDT time to prevent confusion due to time zone crossing. See the EJA982 flight status page for this flight to view local times or setup timezone preferences in your user account.

Time Position Orientation Groundspeed Altitude Reporting Facility
EDT Latitude Longitude Course Direction KTS km/h feet Rate Location/Type
Fri 18:18:16 43.8383 -92.5450 216° Southwest 203 377 4,500  Level Minneapolis Center
Fri 18:19:18 43.7847 -92.6039 218° Southwest 247 457 8,000 2,516 Climbing Minneapolis Center
Fri 18:20:20 43.7208 -92.6722 218° Southwest 271 502 9,700 1,645 Climbing Minneapolis Center
Fri 18:21:22 43.6481 -92.7494 218° Southwest 349 647 11,400 1,887 Climbing Minneapolis Center
Fri 18:22:24 43.5589 -92.8442 218° Southwest 377 698 13,600 1,984 Climbing Minneapolis Center
Fri 18:23:00 43.4377 -92.9623 216° Southwest  Level FlightAware Approximate
Fri 18:23:26 43.4719 -92.9361 218° Southwest 396 734 15,500  Level Minneapolis Center
Fri 18:24:28 43.3758 -93.0367 217° Southwest 405 750 17,700 1,887 Climbing Minneapolis Center
Fri 18:25:30 43.2944 -93.1228 218° Southwest 404 748 19,400 1,113 Climbing Minneapolis Center
Fri 18:26:32 43.2058 -93.2272 221° Southwest 420 777 20,000 290 Climbing Minneapolis Center
Fri 18:27:34 43.0919 -93.3586 220° Southwest 447 827 20,000  Level Minneapolis Center
Fri 18:28:36 42.9975 -93.4703 221° Southwest 453 838 20,000  Level Minneapolis Center
Fri 18:29:39 42.9039 -93.5792 220° Southwest 446 826 20,000 -96 Level Minneapolis Center
Fri 18:30:41 42.8094 -93.6878 220° Southwest 449 832 19,800 -1,355 Descending Minneapolis Center
Fri 18:31:43 42.7144 -93.7925 219° Southwest 445 824 17,200 -2,081 Descending Minneapolis Center
Fri 18:32:45 42.6117 -93.9125 221° Southwest 413 764 15,500 -2,032 Descending Minneapolis Center
Fri 18:33:47 42.5258 -94.0117 220° Southwest 410 760 13,000 -2,129 Descending Minneapolis Center
Fri 18:34:49 42.4403 -94.1072 220° Southwest 404 748 11,100 -1,403 Descending Minneapolis Center
Fri 18:35:51 42.3583 -94.2019 221° Southwest 394 729 10,100 -532 Descending Minneapolis Center
Fri 18:36:53 42.2594 -94.3122 220° Southwest 393 727 10,000 -48 Descending Minneapolis Center
Fri 18:37:55 42.1664 -94.4100 218° Southwest 398 737 10,000  Level Minneapolis Center
Fri 18:38:57 42.0831 -94.5053 220° Southwest 395 732 10,000  Level Minneapolis Center
Fri 18:39:59 42.0028 -94.5925 219° Southwest 395 732 10,000  Level Minneapolis Center
Fri 18:41:01 41.9211 -94.6861 220° Southwest 390 723 10,000  Level Minneapolis Center
Fri 18:42:03 41.8364 -94.7794 219° Southwest 391 724 10,000  Level Minneapolis Center
Fri 18:43:06 41.7336 -94.8922 219° Southwest 395 732 10,000  Level Minneapolis Center
Fri 18:44:08 41.6475 -94.9858 219° Southwest 396 734 10,000  Level Minneapolis Center
Fri 18:44:36 41.6147 -95.0428 232° Southwest 390 723 10,000  Level Minneapolis Center
Fri 18:45:10 41.5633 -95.0764 206° Southwest 393 727 10,000  Level Minneapolis Center
Fri 18:45:49 41.5136 -95.1506 228° Southwest 378 700 10,000  Level Minneapolis Center
Fri 18:46:12 41.4836 -95.1650 200° South 385 713 10,000 -492 Level Minneapolis Center
Fri 18:46:50 41.4853 -95.2517 271° West 280 518 9,500 -492 Descending Minneapolis Center
Fri 18:47:13 41.4764 -95.2500 172° South 331 613 9,500 -2,000 Level Minneapolis Center
Fri 18:47:44 41.4858 -95.3464 277° West 270 501 7,700 -2,000 Descending Minneapolis Center
Fri 18:48:16 41.4817 -95.3758 259° West 295 546 7,400 -1,082 Descending Minneapolis Center
Fri 18:48:45 41.4889 -95.4489 278° West 276 512 6,600 -1,161 Descending Minneapolis Center
Fri 18:49:18 41.4864 -95.4944 266° West 280 518 6,200 -590 Descending Minneapolis Center
Fri 18:49:46 41.4914 -95.5461 277° West 262 486 6,000 -194 Descending Minneapolis Center
Fri 18:50:20 41.4911 -95.5922 270° West 272 504 6,000  Level Minneapolis Center
Fri 18:50:53 41.4969 -95.6594 277° West 266 492 6,000 -97 Level Minneapolis Center
Fri 18:51:22 41.4969 -95.6900 270° West 268 496 5,900 -1,082 Descending Minneapolis Center
Fri 18:51:54 41.5014 -95.7564 275° West 265 491 4,900 -1,452 Descending Minneapolis Center
Fri 18:52:24 41.5036 -95.7872 276° West 266 492 4,400 -885 Descending Minneapolis Center
Fri 18:52:55 41.5039 -95.8536 270° West 265 491 4,000 -387 Descending Minneapolis Center
Fri 18:53:26 41.4983 -95.8617 227° Southwest 264 489 4,000 -500 Level Minneapolis Center
Fri 18:53:55 41.4694 -95.9356 242° Southwest 251 465 3,500 -968 Descending Minneapolis Center
Fri 18:54:28 41.4397 -95.9608 213° Southwest 250 463 3,000 -885 Descending Minneapolis Center
Fri 18:54:56 41.4186 -95.9886 225° Southwest 201 372 2,600 -290 Descending Minneapolis Center
Fri 18:55:30 41.3953 -95.9789 163° South 210 389 2,700 -98 Climbing Minneapolis Center
Fri 18:55:57 41.3797 -95.9708 159° South 132 245 2,500 -484 Descending Minneapolis Center
Fri 18:56:32 41.3625 -95.9456 132° Southeast 166 307 2,200 -689 Descending Minneapolis Center
Fri 18:56:58 41.3483 -95.9383 159° South 134 248 1,800 -677 Descending Minneapolis Center
Fri 18:57:34 41.3322 -95.9175 136° Southeast 146 270 1,500 -429 Descending Minneapolis Center
Fri 18:58:36 41.3069 -95.8933 144° Southeast 139 257 1,100 -387 Descending Minneapolis Center

Login

Don't have an account? Register now (free) for customized features, flight alerts, and more!